Time;durP1;ratioP1;P1;durP2;ratioP2;P2;SDS_P1;SDS_P2;PMS_P1;PMS_P2;Temp;Humidity;BMP_temperature;BMP_pressure;BME280_temperature;BME280_humidity;BME280_pressure;Samples;Min_cycle;Max_cycle;Signal;HPM_P1;HPM_P2
2024/02/14 00:00:13;;;;;;;99.53;21.85;;;;;;;0.18;100.00;98436.63;5029790;28;20125;-62
2024/02/14 00:02:43;;;;;;;51.40;19.50;;;;;;;0.14;100.00;98437.28;5029979;28;20033;-62
2024/02/14 00:05:10;;;;;;;76.03;21.02;;;;;;;0.08;100.00;98434.47;5030752;28;20401;-62
2024/02/14 00:07:37;;;;;;;54.58;17.67;;;;;;;0.02;100.00;98432.50;5030780;28;20036;-61
2024/02/14 00:10:02;;;;;;;67.03;19.95;;;;;;;0.07;100.00;98435.28;5030199;28;20033;-62
2024/02/14 00:12:28;;;;;;;67.82;19.48;;;;;;;0.04;100.00;98440.25;5027991;28;20044;-62
2024/02/14 00:14:53;;;;;;;79.32;20.90;;;;;;;0.02;100.00;98440.19;5029698;28;20028;-61
2024/02/14 00:17:19;;;;;;;54.63;20.27;;;;;;;0.03;100.00;98439.38;5030490;28;20029;-64
2024/02/14 00:19:44;;;;;;;77.00;19.45;;;;;;;-0.01;100.00;98438.38;5029017;28;20111;-63
2024/02/14 00:22:09;;;;;;;46.50;16.85;;;;;;;0.02;100.00;98434.19;5030318;28;20036;-60
2024/02/14 00:24:35;;;;;;;55.72;18.05;;;;;;;0.03;100.00;98436.81;5033703;28;20056;-62
2024/02/14 00:27:03;;;;;;;76.15;18.58;;;;;;;0.05;100.00;98432.66;5014469;28;20382;-59
2024/02/14 00:29:28;;;;;;;78.85;18.77;;;;;;;-0.01;100.00;98427.25;5032541;28;20444;-62
2024/02/14 00:31:53;;;;;;;80.43;18.75;;;;;;;0.00;100.00;98431.56;5028302;28;20033;-61
2024/02/14 00:34:19;;;;;;;56.35;20.33;;;;;;;-0.04;100.00;98432.25;5030363;28;20318;-60
2024/02/14 00:36:44;;;;;;;60.30;18.52;;;;;;;-0.13;100.00;98432.69;5032531;28;20128;-61
2024/02/14 00:39:10;;;;;;;71.70;18.98;;;;;;;-0.24;100.00;98434.72;5029476;28;20029;-63
2024/02/14 00:41:36;;;;;;;55.42;17.75;;;;;;;-0.18;100.00;98439.25;5028887;28;20060;-59
2024/02/14 00:44:02;;;;;;;61.17;20.75;;;;;;;-0.21;100.00;98440.00;5030820;28;20484;-60
2024/02/14 00:46:28;;;;;;;65.38;19.00;;;;;;;-0.25;100.00;98443.22;5031994;28;20037;-59
2024/02/14 00:48:54;;;;;;;81.13;21.52;;;;;;;-0.27;100.00;98432.03;5028216;28;20032;-62
2024/02/14 00:51:20;;;;;;;65.03;19.15;;;;;;;-0.27;100.00;98437.13;5029733;28;20128;-60
2024/02/14 00:53:46;;;;;;;95.47;22.02;;;;;;;-0.21;100.00;98437.44;5029654;28;20088;-60
2024/02/14 00:56:11;;;;;;;48.83;18.45;;;;;;;-0.14;100.00;98441.16;5030720;28;20071;-61
2024/02/14 00:58:36;;;;;;;56.78;18.48;;;;;;;-0.09;100.00;98446.47;5032240;28;20017;-62
2024/02/14 01:01:02;;;;;;;94.82;18.27;;;;;;;0.05;100.00;98442.88;5030240;28;20483;-59
2024/02/14 01:03:27;;;;;;;64.15;16.65;;;;;;;0.17;100.00;98446.78;5027742;28;20551;-62
2024/02/14 01:05:52;;;;;;;60.25;16.45;;;;;;;0.38;100.00;98445.19;5027892;28;20047;-61
2024/02/14 01:08:18;;;;;;;75.68;27.05;;;;;;;0.46;100.00;98443.00;5024971;28;20027;-59
2024/02/14 01:10:43;;;;;;;73.78;16.30;;;;;;;0.50;100.00;98441.44;5025755;28;20463;-58
2024/02/14 01:13:08;;;;;;;81.15;18.10;;;;;;;0.54;100.00;98440.78;5025626;28;20476;-59
2024/02/14 01:15:34;;;;;;;79.13;17.25;;;;;;;0.53;100.00;98441.59;5023697;28;20783;-58
2024/02/14 01:18:00;;;;;;;97.45;19.85;;;;;;;0.48;100.00;98443.06;5024771;28;20072;-61
2024/02/14 01:20:25;;;;;;;69.30;19.38;;;;;;;0.48;100.00;98438.81;5026621;28;20277;-61
2024/02/14 01:22:50;;;;;;;75.85;19.88;;;;;;;0.50;100.00;98438.88;5026505;28;20029;-60
2024/02/14 01:25:16;;;;;;;69.82;19.52;;;;;;;0.58;100.00;98440.09;5024386;28;20432;-60
2024/02/14 01:27:42;;;;;;;75.32;23.00;;;;;;;0.65;100.00;98446.34;5025994;28;20681;-60
2024/02/14 01:30:09;;;;;;;100.35;18.83;;;;;;;0.66;100.00;98447.25;5025182;28;20435;-61
2024/02/14 01:32:34;;;;;;;44.20;17.17;;;;;;;0.62;100.00;98448.78;5025671;28;20169;-59
2024/02/14 01:35:00;;;;;;;92.85;21.05;;;;;;;0.70;100.00;98447.44;5025719;28;20024;-60
2024/02/14 01:37:26;;;;;;;75.72;19.48;;;;;;;0.68;100.00;98443.94;5025659;28;20049;-62
2024/02/14 01:39:51;;;;;;;81.18;19.92;;;;;;;0.67;100.00;98443.88;5026036;28;20095;-60
2024/02/14 01:42:16;;;;;;;89.82;22.90;;;;;;;0.62;100.00;98447.09;5023923;28;20068;-59
2024/02/14 01:44:43;;;;;;;75.57;19.33;;;;;;;0.61;100.00;98441.91;5025127;28;20035;-60
2024/02/14 01:47:10;;;;;;;98.47;28.65;;;;;;;0.60;100.00;98440.16;5027508;28;20476;-59
2024/02/14 01:49:36;;;;;;;120.30;22.05;;;;;;;0.59;100.00;98444.41;5027580;28;20040;-63
2024/02/14 01:52:03;;;;;;;100.38;24.42;;;;;;;0.61;100.00;98442.78;5027170;28;20377;-60
2024/02/14 01:54:29;;;;;;;77.40;20.95;;;;;;;0.62;100.00;98436.88;5029695;28;20032;-60
2024/02/14 01:56:58;;;;;;;90.68;21.55;;;;;;;0.59;100.00;98426.47;5028805;28;20029;-58
2024/02/14 01:59:24;;;;;;;86.18;20.60;;;;;;;0.60;100.00;98433.34;5030451;28;20017;-58
2024/02/14 02:01:51;;;;;;;93.85;22.13;;;;;;;0.58;100.00;98424.75;5029240;28;20705;-61
2024/02/14 02:04:17;;;;;;;77.38;19.25;;;;;;;0.54;100.00;98422.84;5029738;28;20056;-64
2024/02/14 02:06:43;;;;;;;69.63;18.27;;;;;;;0.51;100.00;98422.72;5027775;28;20451;-61
2024/02/14 02:09:09;;;;;;;98.45;22.08;;;;;;;0.48;100.00;98422.59;5026562;28;20528;-60
2024/02/14 02:11:48;;;;;;;66.50;18.25;;;;;;;0.45;100.00;98419.91;5027639;28;20448;-61
2024/02/14 02:14:14;;;;;;;113.53;21.98;;;;;;;0.43;100.00;98413.81;5027285;28;20088;-59
2024/02/14 02:16:40;;;;;;;68.80;19.75;;;;;;;0.46;100.00;98412.28;5028084;28;20037;-61
2024/02/14 02:19:08;;;;;;;77.25;19.52;;;;;;;0.52;100.00;98406.56;5030032;28;20318;-60
2024/02/14 02:21:34;;;;;;;80.82;21.83;;;;;;;0.58;100.00;98406.81;5028170;28;20345;-59
2024/02/14 02:24:00;;;;;;;84.63;19.85;;;;;;;0.63;100.00;98413.00;5028317;28;20035;-60
2024/02/14 02:26:26;;;;;;;66.35;19.35;;;;;;;0.64;100.00;98409.63;5028340;28;20037;-60
2024/02/14 02:28:51;;;;;;;92.03;20.75;;;;;;;0.63;100.00;98405.31;5029137;28;20735;-59
2024/02/14 02:31:16;;;;;;;54.35;19.35;;;;;;;0.70;100.00;98403.91;5027195;28;20037;-59
2024/02/14 02:33:43;;;;;;;75.78;21.85;;;;;;;0.78;100.00;98396.56;5030419;28;20289;-61
2024/02/14 02:36:09;;;;;;;108.45;20.88;;;;;;;0.81;100.00;98401.78;5027970;28;20038;-63
2024/02/14 02:38:36;;;;;;;73.63;20.42;;;;;;;0.90;100.00;98397.06;5029296;28;20496;-60
2024/02/14 02:41:03;;;;;;;87.40;21.70;;;;;;;0.92;100.00;98403.94;5025171;28;20560;-61
2024/02/14 02:43:28;;;;;;;81.72;19.70;;;;;;;0.92;100.00;98406.50;5029535;28;20057;-60
2024/02/14 02:45:53;;;;;;;85.72;20.95;;;;;;;0.82;100.00;98408.66;5026571;28;20201;-62
2024/02/14 02:48:23;;;;;;;82.65;22.17;;;;;;;0.88;100.00;98408.94;5028395;28;20047;-61
2024/02/14 02:50:49;;;;;;;69.03;20.55;;;;;;;0.92;100.00;98406.50;5028546;28;20333;-60
2024/02/14 02:53:15;;;;;;;90.20;20.58;;;;;;;1.00;100.00;98406.00;5029684;28;20056;-60
2024/02/14 02:55:41;;;;;;;95.25;20.73;;;;;;;1.08;100.00;98403.75;5012821;28;20576;-60
2024/02/14 02:58:06;;;;;;;83.10;21.10;;;;;;;1.15;100.00;98402.34;5031290;28;20063;-62
2024/02/14 03:00:33;;;;;;;59.95;17.50;;;;;;;0.98;100.00;98399.06;5026042;28;20061;-60
2024/02/14 03:02:58;;;;;;;89.35;21.52;;;;;;;0.94;100.00;98397.19;5027493;28;20052;-62
2024/02/14 03:05:24;;;;;;;54.50;17.15;;;;;;;0.83;100.00;98395.06;5027332;28;20309;-64
2024/02/14 03:07:50;;;;;;;70.20;18.17;;;;;;;0.67;100.00;98400.34;5028245;28;20128;-65
2024/02/14 03:10:17;;;;;;;104.00;18.02;;;;;;;0.60;100.00;98402.63;5027766;28;20025;-60
2024/02/14 03:12:47;;;;;;;64.20;15.68;;;;;;;0.49;100.00;98399.59;5026718;28;20017;-61
2024/02/14 03:15:13;;;;;;;105.57;20.40;;;;;;;0.53;100.00;98392.94;5024997;28;20034;-61
2024/02/14 03:17:39;;;;;;;72.22;19.02;;;;;;;0.51;100.00;98387.75;5028061;28;20258;-61
2024/02/14 03:20:12;;;;;;;100.38;22.75;;;;;;;0.43;100.00;98391.66;5026378;28;20033;-65
2024/02/14 03:22:41;;;;;;;91.20;18.95;;;;;;;0.37;100.00;98379.47;5028215;28;20324;-59
2024/02/14 03:25:08;;;;;;;89.40;17.33;;;;;;;0.31;100.00;98386.00;5025985;28;20034;-59
2024/02/14 03:27:34;;;;;;;79.38;17.33;;;;;;;0.30;100.00;98382.56;5027223;28;20022;-60
2024/02/14 03:30:02;;;;;;;71.35;18.58;;;;;;;0.37;100.00;98384.59;5027105;28;20032;-60
2024/02/14 03:32:28;;;;;;;80.53;16.92;;;;;;;0.33;100.00;98384.41;5028085;28;20044;-64
2024/02/14 03:34:54;;;;;;;106.68;20.45;;;;;;;0.34;100.00;98387.00;5028110;28;20109;-61
2024/02/14 03:37:19;;;;;;;72.30;17.88;;;;;;;0.33;100.00;98385.28;5026756;28;20421;-62
2024/02/14 03:39:45;;;;;;;80.93;16.58;;;;;;;0.20;100.00;98386.44;5024707;28;20090;-60
2024/02/14 03:42:11;;;;;;;104.78;20.02;;;;;;;0.25;100.00;98389.16;5023659;28;20048;-59
2024/02/14 03:44:37;;;;;;;59.30;20.25;;;;;;;0.36;100.00;98387.97;5029054;28;20021;-60
2024/02/14 03:47:04;;;;;;;66.57;17.98;;;;;;;0.41;100.00;98387.28;5024148;28;20528;-60
2024/02/14 03:49:30;;;;;;;104.63;20.98;;;;;;;0.46;100.00;98389.25;5026928;28;20021;-61
2024/02/14 03:51:56;;;;;;;81.88;20.30;;;;;;;0.51;100.00;98392.00;5009884;28;20040;-62
2024/02/14 03:54:21;;;;;;;59.90;17.23;;;;;;;0.51;100.00;98380.06;5025844;28;20086;-59
2024/02/14 03:56:46;;;;;;;61.25;17.98;;;;;;;0.54;100.00;98383.56;5026623;28;20165;-61
2024/02/14 03:59:12;;;;;;;86.35;18.75;;;;;;;0.52;100.00;98386.94;5025522;28;20385;-61
2024/02/14 04:01:38;;;;;;;58.88;16.90;;;;;;;0.50;100.00;98396.25;5023556;28;20343;-60
2024/02/14 04:04:04;;;;;;;73.38;19.02;;;;;;;0.42;100.00;98399.28;5024050;28;20026;-60
2024/02/14 04:06:31;;;;;;;64.75;16.95;;;;;;;0.40;100.00;98395.78;5024830;28;20079;-60
2024/02/14 04:08:57;;;;;;;87.30;17.67;;;;;;;0.49;100.00;98401.31;5025949;28;20017;-63
2024/02/14 04:11:23;;;;;;;59.17;17.27;;;;;;;0.51;100.00;98399.66;5016790;28;20458;-61
2024/02/14 04:13:48;;;;;;;67.50;18.08;;;;;;;0.49;100.00;98403.88;5026504;28;20218;-60
2024/02/14 04:16:13;;;;;;;105.47;18.23;;;;;;;0.34;100.00;98402.38;5024196;28;20052;-60
2024/02/14 04:18:39;;;;;;;65.30;16.38;;;;;;;0.16;100.00;98394.78;5026803;28;20404;-61
2024/02/14 04:21:07;;;;;;;75.82;16.67;;;;;;;0.04;100.00;98402.75;5026188;28;20535;-59
2024/02/14 04:23:33;;;;;;;89.28;16.58;;;;;;;-0.09;100.00;98403.88;5025319;28;20025;-62
2024/02/14 04:25:58;;;;;;;68.35;16.50;;;;;;;-0.28;100.00;98394.50;5024944;28;21085;-62
2024/02/14 04:28:23;;;;;;;52.80;14.45;;;;;;;-0.42;100.00;98392.16;5024595;28;20108;-62
2024/02/14 04:30:49;;;;;;;86.32;15.38;;;;;;;-0.42;100.00;98392.16;5025646;28;20190;-61
2024/02/14 04:33:14;;;;;;;93.82;16.63;;;;;;;-0.38;100.00;98394.88;5025504;28;20036;-62
2024/02/14 04:35:39;;;;;;;62.10;14.80;;;;;;;-0.39;100.00;98394.00;5026218;28;20140;-60
2024/02/14 04:38:05;;;;;;;84.88;14.75;;;;;;;-0.38;100.00;98389.75;5025952;28;20037;-62
2024/02/14 04:40:30;;;;;;;52.00;13.65;;;;;;;-0.41;100.00;98387.94;5025283;28;20140;-59
2024/02/14 04:42:55;;;;;;;68.50;21.10;;;;;;;-0.33;100.00;98385.75;5024508;28;20017;-61
2024/02/14 04:45:21;;;;;;;105.20;17.00;;;;;;;-0.34;100.00;98387.41;5024587;28;20033;-61
2024/02/14 04:47:46;;;;;;;72.30;14.88;;;;;;;-0.22;100.00;98389.66;5025792;28;20022;-60
2024/02/14 04:50:12;;;;;;;107.95;16.95;;;;;;;0.05;100.00;98391.72;5024588;28;20388;-60
2024/02/14 04:52:37;;;;;;;73.05;14.32;;;;;;;0.20;100.00;98396.66;5006405;28;20026;-63
2024/02/14 04:55:03;;;;;;;60.00;13.85;;;;;;;0.39;100.00;98405.13;5025325;28;20017;-60
2024/02/14 04:57:29;;;;;;;65.03;15.13;;;;;;;0.52;100.00;98406.56;5023716;28;20049;-61
2024/02/14 04:59:54;;;;;;;87.00;17.00;;;;;;;0.63;100.00;98410.44;5026379;28;20028;-62
2024/02/14 05:02:19;;;;;;;87.97;19.63;;;;;;;0.68;100.00;98408.09;5024723;28;20535;-60
2024/02/14 05:04:45;;;;;;;99.00;30.17;;;;;;;0.63;100.00;98402.75;5024793;28;20048;-62
2024/02/14 05:07:10;;;;;;;94.05;23.77;;;;;;;0.80;100.00;98410.28;5025713;28;20475;-61
2024/02/14 05:09:35;;;;;;;81.93;18.83;;;;;;;0.73;100.00;98408.28;5025528;28;20075;-62
2024/02/14 05:12:01;;;;;;;97.18;21.65;;;;;;;0.76;100.00;98413.53;5024881;28;20475;-62
2024/02/14 05:14:30;;;;;;;59.00;19.13;;;;;;;0.85;100.00;98413.06;5024581;28;20021;-60
2024/02/14 05:16:56;;;;;;;71.53;17.88;;;;;;;0.96;100.00;98414.38;5025273;28;20037;-60
2024/02/14 05:19:21;;;;;;;124.40;21.58;;;;;;;0.96;100.00;98413.50;5023338;28;20045;-61
2024/02/14 05:21:47;;;;;;;70.65;18.92;;;;;;;1.04;100.00;98414.72;5024413;28;20465;-61
2024/02/14 05:24:12;;;;;;;74.07;19.33;;;;;;;1.16;100.00;98415.19;5026346;28;20064;-63
2024/02/14 05:26:37;;;;;;;83.82;20.52;;;;;;;1.35;100.00;98420.19;5029599;28;20551;-61
2024/02/14 05:29:02;;;;;;;54.88;16.83;;;;;;;1.32;100.00;98415.81;5030096;28;20025;-60
2024/02/14 05:31:45;;;;;;;62.25;17.55;;;;;;;1.43;100.00;98421.38;5019575;28;20116;-61
2024/02/14 05:34:11;;;;;;;80.47;18.60;;;;;;;1.58;100.00;98433.94;5028664;28;20043;-61
2024/02/14 05:36:36;;;;;;;58.05;15.68;;;;;;;1.66;100.00;98437.69;5033129;28;20539;-59
2024/02/14 05:39:02;;;;;;;89.40;20.17;;;;;;;1.38;100.00;98430.59;5031997;28;20116;-59
2024/02/14 05:41:28;;;;;;;54.92;17.35;;;;;;;1.43;100.00;98429.06;5028503;28;20400;-61
2024/02/14 05:43:53;;;;;;;81.80;19.33;;;;;;;1.60;100.00;98434.84;5027938;28;20428;-61
2024/02/14 05:46:20;;;;;;;111.47;20.05;;;;;;;1.76;100.00;98435.47;5026740;28;20452;-61
2024/02/14 05:48:46;;;;;;;63.08;17.98;;;;;;;1.87;100.00;98438.47;5028742;28;20029;-60
2024/02/14 05:51:11;;;;;;;89.10;21.60;;;;;;;2.08;100.00;98444.41;5026993;28;20056;-61
2024/02/14 05:53:36;;;;;;;70.30;17.58;;;;;;;2.16;100.00;98449.81;5027769;28;20009;-59
2024/02/14 05:56:02;;;;;;;68.10;20.85;;;;;;;2.10;100.00;98448.72;5027827;28;20057;-61
2024/02/14 05:58:28;;;;;;;63.35;22.80;;;;;;;2.13;100.00;98439.47;5026971;28;20659;-61
2024/02/14 06:00:54;;;;;;;104.22;26.88;;;;;;;1.53;100.00;98427.75;5029825;28;20037;-59
2024/02/14 06:03:20;;;;;;;113.47;34.35;;;;;;;1.78;100.00;98428.72;5026482;28;20572;-60
2024/02/14 06:05:46;;;;;;;90.75;22.83;;;;;;;2.03;100.00;98440.78;5030192;28;20180;-60
2024/02/14 06:08:12;;;;;;;93.72;21.88;;;;;;;2.15;100.00;98431.81;5029035;28;20018;-60
2024/02/14 06:10:38;;;;;;;72.72;23.02;;;;;;;2.16;100.00;98429.28;5027884;28;20491;-62
2024/02/14 06:13:04;;;;;;;85.90;21.00;;;;;;;2.37;100.00;98423.19;5025304;28;20024;-63
2024/02/14 06:15:29;;;;;;;70.30;23.08;;;;;;;2.53;100.00;98434.03;5026929;28;20052;-61
2024/02/14 06:17:55;;;;;;;77.30;23.75;;;;;;;2.58;100.00;98437.63;5028573;28;20056;-59
2024/02/14 06:20:20;;;;;;;128.27;31.50;;;;;;;2.50;100.00;98433.91;5026444;28;20033;-59
2024/02/14 06:22:45;;;;;;;88.80;24.10;;;;;;;2.60;100.00;98442.00;5030004;28;20024;-61
2024/02/14 06:25:11;;;;;;;73.47;22.35;;;;;;;2.65;100.00;98442.19;5028695;28;20121;-59
2024/02/14 06:27:37;;;;;;;73.07;23.25;;;;;;;2.68;100.00;98444.00;5029204;28;20096;-58
2024/02/14 06:30:03;;;;;;;56.72;19.33;;;;;;;2.43;100.00;98445.66;5027001;28;20029;-59
2024/02/14 06:32:28;;;;;;;105.97;23.90;;;;;;;2.31;100.00;98446.94;5027873;28;20045;-59
2024/02/14 06:34:54;;;;;;;89.40;21.88;;;;;;;2.28;100.00;98454.56;5025448;28;20029;-59
2024/02/14 06:37:19;;;;;;;98.45;25.17;;;;;;;2.40;100.00;98456.69;5027575;28;20155;-60
2024/02/14 06:39:45;;;;;;;75.03;22.13;;;;;;;2.39;100.00;98460.09;5027059;28;20033;-60
2024/02/14 06:42:10;;;;;;;53.50;17.70;;;;;;;2.35;100.00;98460.78;5027854;28;20356;-59
2024/02/14 06:44:35;;;;;;;70.03;23.95;;;;;;;2.32;100.00;98459.00;5027375;28;20124;-61
2024/02/14 06:47:01;;;;;;;82.07;23.85;;;;;;;2.40;100.00;98455.81;5028346;28;20421;-60
2024/02/14 06:49:26;;;;;;;116.40;25.05;;;;;;;2.17;100.00;98456.72;5026390;28;20025;-59
2024/02/14 06:51:51;;;;;;;93.38;29.08;;;;;;;2.28;100.00;98458.81;5028666;28;20033;-58
2024/02/14 06:54:19;;;;;;;112.78;30.05;;;;;;;2.35;100.00;98445.38;5026283;28;20104;-58
2024/02/14 06:56:44;;;;;;;76.05;26.42;;;;;;;2.49;100.00;98453.59;5025557;28;20398;-60
2024/02/14 06:59:10;;;;;;;63.17;24.42;;;;;;;2.46;100.00;98454.34;5028906;28;20359;-58
2024/02/14 07:01:35;;;;;;;81.70;25.00;;;;;;;2.36;100.00;98452.28;5025083;28;20132;-58
2024/02/14 07:04:01;;;;;;;68.18;25.50;;;;;;;2.42;100.00;98455.03;5026163;28;20108;-59
2024/02/14 07:06:27;;;;;;;90.93;22.77;;;;;;;2.83;100.00;98454.78;5018670;28;20091;-60
2024/02/14 07:08:53;;;;;;;99.15;28.75;;;;;;;3.19;100.00;98457.72;5027547;28;20025;-61
2024/02/14 07:11:18;;;;;;;90.15;24.50;;;;;;;3.06;100.00;98454.72;5027979;28;20037;-57
2024/02/14 07:13:44;;;;;;;62.42;18.58;;;;;;;2.85;100.00;98459.97;5027132;28;20021;-59
2024/02/14 07:16:09;;;;;;;82.18;23.13;;;;;;;2.93;100.00;98455.13;5025408;28;20464;-58
2024/02/14 07:18:35;;;;;;;78.28;23.63;;;;;;;3.03;100.00;98448.59;5027593;28;20120;-58
2024/02/14 07:21:01;;;;;;;87.68;34.13;;;;;;;3.08;100.00;98455.63;5020773;28;20495;-59
2024/02/14 07:23:26;;;;;;;129.82;27.05;;;;;;;3.37;100.00;98454.88;5023540;28;20451;-58
2024/02/14 07:25:52;;;;;;;98.60;28.98;;;;;;;3.35;100.00;98452.25;5026596;28;20044;-59
2024/02/14 07:28:18;;;;;;;91.25;29.73;;;;;;;3.51;100.00;98456.22;5027508;28;20036;-59
2024/02/14 07:30:44;;;;;;;88.45;23.50;;;;;;;3.72;100.00;98459.41;5027256;28;20032;-58
2024/02/14 07:33:09;;;;;;;59.20;20.25;;;;;;;3.67;100.00;98455.81;5026239;28;20132;-59
2024/02/14 07:35:36;;;;;;;74.30;27.17;;;;;;;4.08;100.00;98455.38;5025392;28;20048;-58
2024/02/14 07:38:02;;;;;;;88.28;23.98;;;;;;;3.54;100.00;98446.81;5026881;28;20032;-60
2024/02/14 07:40:30;;;;;;;114.50;31.98;;;;;;;3.70;100.00;98450.75;5021677;28;20041;-61
2024/02/14 07:42:56;;;;;;;93.70;30.58;;;;;;;3.91;100.00;98440.28;5024902;28;20021;-61
2024/02/14 07:45:21;;;;;;;109.90;31.20;;;;;;;4.11;100.00;98442.56;5025392;28;20413;-59
2024/02/14 07:47:49;;;;;;;84.05;31.77;;;;;;;4.46;100.00;98441.84;5025859;28;20029;-63
2024/02/14 07:50:14;;;;;;;75.40;24.17;;;;;;;4.78;100.00;98463.38;5026660;28;20033;-59
2024/02/14 07:52:44;;;;;;;63.67;24.42;;;;;;;4.47;100.00;98457.38;5027938;28;20390;-62
2024/02/14 07:55:13;;;;;;;59.58;24.55;;;;;;;4.48;100.00;98459.09;5024418;28;20413;-62
2024/02/14 07:57:42;;;;;;;95.55;31.90;;;;;;;4.80;100.00;98453.09;5006839;28;20017;-59
2024/02/14 08:00:08;;;;;;;75.82;29.42;;;;;;;4.90;100.00;98442.19;5026471;28;20676;-61
2024/02/14 08:02:34;;;;;;;109.03;29.42;;;;;;;5.55;100.00;98457.56;5025025;28;20041;-60
2024/02/14 08:05:00;;;;;;;76.28;26.73;;;;;;;5.37;100.00;98450.25;5025427;28;20021;-60
2024/02/14 08:07:25;;;;;;;111.15;30.73;;;;;;;5.16;100.00;98454.06;5025454;28;20052;-60
2024/02/14 08:09:51;;;;;;;86.38;27.20;;;;;;;5.21;100.00;98460.19;5025320;28;20036;-61
2024/02/14 08:12:16;;;;;;;73.60;25.55;;;;;;;5.46;100.00;98473.72;5026393;28;20092;-63
2024/02/14 08:14:41;;;;;;;75.88;27.52;;;;;;;5.49;100.00;98465.19;5026528;28;20573;-59
2024/02/14 08:17:07;;;;;;;73.55;28.38;;;;;;;5.45;100.00;98459.94;5025867;28;20038;-62
2024/02/14 08:19:32;;;;;;;112.15;32.03;;;;;;;5.63;100.00;98465.50;5025090;28;20416;-61
2024/02/14 08:22:00;;;;;;;67.45;26.73;;;;;;;6.03;100.00;98471.66;5026133;28;20059;-60
2024/02/14 08:24:28;;;;;;;96.82;27.52;;;;;;;6.43;100.00;98478.53;5024171;28;20041;-59
2024/02/14 08:26:54;;;;;;;79.45;33.95;;;;;;;6.54;100.00;98469.28;5024379;28;20037;-60
2024/02/14 08:29:20;;;;;;;86.07;32.55;;;;;;;6.47;100.00;98473.47;5024479;28;20031;-60
2024/02/14 08:31:46;;;;;;;115.38;36.38;;;;;;;6.59;100.00;98470.25;5024933;28;20507;-59
2024/02/14 08:34:11;;;;;;;78.93;30.35;;;;;;;6.76;100.00;98472.31;5025004;28;20537;-58
2024/02/14 08:36:40;;;;;;;73.22;28.10;;;;;;;6.81;100.00;98468.09;5024483;28;20553;-60
2024/02/14 08:39:09;;;;;;;89.45;29.95;;;;;;;6.87;100.00;98472.50;5024664;28;20661;-61
2024/02/14 08:41:38;;;;;;;97.10;30.45;;;;;;;6.98;100.00;98478.75;5024116;28;20048;-60
2024/02/14 08:44:07;;;;;;;71.75;26.23;;;;;;;6.95;100.00;98490.75;5024265;28;20041;-61
2024/02/14 08:46:32;;;;;;;95.00;32.65;;;;;;;7.12;100.00;98489.34;5022921;28;20068;-62
2024/02/14 08:49:02;;;;;;;75.70;29.23;;;;;;;7.13;100.00;98500.59;5026551;28;20067;-59
2024/02/14 08:51:28;;;;;;;117.80;29.50;;;;;;;6.83;100.00;98491.41;5024649;28;20029;-61
2024/02/14 08:53:55;;;;;;;75.20;23.98;;;;;;;6.87;100.00;98491.47;5023829;28;20060;-61
2024/02/14 08:56:22;;;;;;;60.53;27.77;;;;;;;7.12;100.00;98488.47;5024889;28;20045;-59
2024/02/14 08:58:48;;;;;;;87.65;29.25;;;;;;;7.29;100.00;98483.63;5026140;28;20039;-60
2024/02/14 09:01:14;;;;;;;82.57;22.92;;;;;;;7.31;100.00;98484.50;5022277;28;20096;-58
2024/02/14 09:03:39;;;;;;;58.28;21.77;;;;;;;7.41;100.00;98482.97;5025694;28;20166;-58
2024/02/14 09:06:05;;;;;;;51.28;33.10;;;;;;;7.56;100.00;98479.75;5030275;28;20092;-59
2024/02/14 09:08:30;;;;;;;79.05;25.88;;;;;;;8.34;100.00;98470.56;5028619;28;20061;-59
2024/02/14 09:10:57;;;;;;;68.65;21.42;;;;;;;8.78;100.00;98487.56;5026696;28;20069;-59
2024/02/14 09:13:22;;;;;;;48.95;21.48;;;;;;;8.66;100.00;98487.41;5026234;28;20021;-57
2024/02/14 09:15:50;;;;;;;74.03;64.25;;;;;;;8.24;100.00;98485.09;5030377;28;20232;-60
2024/02/14 09:18:16;;;;;;;63.53;20.27;;;;;;;7.73;100.00;98486.94;5029830;28;20496;-59
2024/02/14 09:20:45;;;;;;;44.15;17.75;;;;;;;7.71;100.00;98483.47;5026883;28;20131;-60
2024/02/14 09:23:11;;;;;;;41.17;19.92;;;;;;;7.67;100.00;98485.13;5028367;28;20037;-57
2024/02/14 09:25:36;;;;;;;82.05;22.98;;;;;;;7.79;100.00;98476.66;5027542;28;20388;-59
2024/02/14 09:28:02;;;;;;;45.35;21.63;;;;;;;8.06;100.00;98470.19;5027619;28;20369;-58
2024/02/14 09:30:27;;;;;;;70.45;22.13;;;;;;;8.24;100.00;98466.97;5027048;28;20041;-60
2024/02/14 09:32:52;;;;;;;59.72;19.75;;;;;;;8.69;100.00;98470.16;5028239;28;20016;-59
2024/02/14 09:35:18;;;;;;;45.63;19.73;;;;;;;9.13;100.00;98478.41;5030036;28;20041;-59
2024/02/14 09:37:43;;;;;;;49.25;25.17;;;;;;;9.54;100.00;98471.03;5029292;28;20481;-60
2024/02/14 09:40:12;;;;;;;52.28;20.33;;;;;;;10.16;100.00;98471.47;5028438;28;20099;-60
2024/02/14 09:42:42;;;;;;;77.55;23.92;;;;;;;10.50;100.00;98465.63;5026504;28;20560;-59
2024/02/14 09:45:08;;;;;;;50.55;16.92;;;;;;;10.35;100.00;98469.84;5029101;28;20029;-59
2024/02/14 09:47:35;;;;;;;80.32;43.55;;;;;;;10.42;100.00;98468.13;5026932;28;20116;-59
2024/02/14 09:50:04;;;;;;;40.63;18.58;;;;;;;9.80;100.00;98457.38;5029105;28;20037;-59
2024/02/14 09:52:33;;;;;;;83.32;19.17;;;;;;;9.80;100.00;98453.03;5025614;28;20037;-59
2024/02/14 09:54:58;;;;;;;47.65;13.20;;;;;;;9.66;100.00;98450.34;5009725;28;20179;-60
2024/02/14 09:57:25;;;;;;;43.38;18.17;;;;;;;10.06;100.00;98452.34;5026413;28;20516;-58
2024/02/14 09:59:51;;;;;;;46.40;13.02;;;;;;;9.60;100.00;98448.56;5027811;28;20021;-60
2024/02/14 10:02:17;;;;;;;44.42;20.45;;;;;;;8.24;100.00;98447.97;5027641;28;20033;-59
2024/02/14 10:04:43;;;;;;;115.95;47.47;;;;;;;8.03;100.00;98452.88;5027860;28;20021;-59
2024/02/14 10:07:08;;;;;;;56.13;45.10;;;;;;;8.24;100.00;98450.56;5027248;28;20059;-59
2024/02/14 10:09:41;;;;;;;94.38;44.20;;;;;;;8.06;100.00;98449.47;5027352;28;20392;-59
2024/02/14 10:12:08;;;;;;;88.15;44.45;;;;;;;7.94;100.00;98444.94;5031090;28;20040;-58
2024/02/14 10:14:35;;;;;;;159.55;133.00;;;;;;;7.81;100.00;98454.25;5030848;28;20028;-60
2024/02/14 10:17:00;;;;;;;65.47;41.88;;;;;;;8.07;100.00;98446.00;5030411;28;20042;-58
2024/02/14 10:19:25;;;;;;;94.60;44.72;;;;;;;8.64;100.00;98447.66;5028616;28;20029;-58
2024/02/14 10:22:02;;;;;;;57.58;29.27;;;;;;;8.64;100.00;98440.72;5031548;28;20041;-60
2024/02/14 10:24:28;;;;;;;85.35;35.88;;;;;;;8.40;100.00;98439.53;5029377;28;20397;-60
2024/02/14 10:26:54;;;;;;;60.28;31.27;;;;;;;8.50;100.00;98439.66;5030943;28;20179;-61
2024/02/14 10:29:20;;;;;;;66.90;45.92;;;;;;;8.36;100.00;98442.06;5032678;28;20124;-59
2024/02/14 10:31:46;;;;;;;134.45;103.57;;;;;;;9.24;100.00;98437.88;5028278;28;21887;-61
2024/02/14 10:34:12;;;;;;;48.90;31.20;;;;;;;10.12;100.00;98436.78;5028814;28;20044;-59
2024/02/14 10:36:40;;;;;;;65.22;18.05;;;;;;;11.28;100.00;98432.84;5027684;28;20037;-60
2024/02/14 10:39:07;;;;;;;41.67;25.50;;;;;;;11.50;100.00;98432.88;5030786;28;20548;-61
2024/02/14 10:41:35;;;;;;;52.67;11.85;;;;;;;11.17;100.00;98429.41;5030882;28;20103;-59
2024/02/14 10:44:07;;;;;;;42.70;11.55;;;;;;;11.66;100.00;98435.47;5029122;28;20517;-59
2024/02/14 10:46:36;;;;;;;60.83;27.98;;;;;;;10.64;100.00;98430.13;5028835;28;20049;-60
2024/02/14 10:49:05;;;;;;;35.42;15.30;;;;;;;11.02;100.00;98431.09;5030379;28;20029;-59
2024/02/14 10:51:35;;;;;;;50.80;11.88;;;;;;;10.76;100.00;98436.25;5028565;28;20091;-60
2024/02/14 10:54:10;;;;;;;46.47;34.28;;;;;;;11.00;100.00;98429.34;5031045;28;20523;-59
2024/02/14 10:56:38;;;;;;;90.05;15.75;;;;;;;11.60;100.00;98425.94;5030592;28;20044;-61
2024/02/14 10:59:08;;;;;;;32.45;12.38;;;;;;;11.81;100.00;98432.00;5032644;28;20044;-59
2024/02/14 11:01:35;;;;;;;69.75;27.20;;;;;;;11.62;100.00;98424.16;5030354;28;20037;-63
2024/02/14 11:04:01;;;;;;;34.97;12.75;;;;;;;11.94;100.00;98422.41;5032397;28;20029;-60
2024/02/14 11:06:29;;;;;;;214.02;194.52;;;;;;;11.80;100.00;98414.63;5029888;28;20255;-60
2024/02/14 11:09:12;;;;;;;49.67;12.00;;;;;;;12.70;100.00;98421.31;5029757;28;20021;-61